Weather at Loen Airport [CLOSED]

Public forecast

Using degrees Celsius for public forecast. Weather courtesy of forecast.io.

Closest aviation weather report (METAR) to Loen Airport

Closest report is Bucholz Army Air Field, 65.1 nm (120.5 km) NNW.

2024/05/26 12:20 (retrieved 17 minutes ago)

PKWA 261220Z AUTO 06014KT 10SM SCT020 SCT031 SCT037 28/25 A2988 RMK AO2 T02830253

Closest aviation forecast (TAF) to Loen Airport

Closest forecast is Bucholz Army Air Field, 65.1 nm (120.5 km) NNW.

2024/05/26 12:30 (retrieved 7 minutes ago)

TAF PKWA 261124Z 2612/2712 07015KT P6SM VCSH SCT018 SCT050